createdAt,value
2018-10-17T00:02:28.155Z,24.07
2018-10-17T00:04:56.489Z,24.05
2018-10-17T00:07:24.831Z,24.06
2018-10-17T00:09:53.190Z,24.04
2018-10-17T00:12:21.545Z,24.03
2018-10-17T00:14:49.931Z,24.01
2018-10-17T00:17:19.067Z,24.00
2018-10-17T00:19:47.376Z,23.98
2018-10-17T00:22:15.715Z,23.98
2018-10-17T00:24:44.025Z,23.98
2018-10-17T00:27:12.396Z,23.97
2018-10-17T00:29:40.745Z,23.97
2018-10-17T00:32:09.084Z,23.94
2018-10-17T00:34:37.402Z,23.93
2018-10-17T00:37:05.970Z,23.92
2018-10-17T00:39:34.258Z,23.92
2018-10-17T00:42:02.671Z,23.90
2018-10-17T00:44:30.960Z,23.90
2018-10-17T00:46:59.312Z,23.89
2018-10-17T00:49:27.650Z,23.87
2018-10-17T00:51:55.979Z,23.86
2018-10-17T00:54:24.417Z,23.86
2018-10-17T00:56:52.882Z,23.86
2018-10-17T00:59:21.976Z,23.85
2018-10-17T01:01:50.565Z,23.83
2018-10-17T01:04:18.888Z,23.83
2018-10-17T01:06:47.348Z,23.82
2018-10-17T01:09:15.939Z,23.80
2018-10-17T01:11:44.344Z,23.80
2018-10-17T01:14:12.720Z,23.79
2018-10-17T01:16:41.122Z,23.78
2018-10-17T01:19:09.524Z,23.77
2018-10-17T01:21:38.150Z,23.77
2018-10-17T01:24:06.742Z,23.76
2018-10-17T01:26:35.114Z,23.76
2018-10-17T01:29:03.475Z,23.74
2018-10-17T01:31:31.962Z,23.74
2018-10-17T01:34:00.372Z,23.73
2018-10-17T01:36:28.811Z,23.71
2018-10-17T01:38:57.170Z,23.70
2018-10-17T01:41:25.573Z,23.71
2018-10-17T01:43:54.535Z,23.68
2018-10-17T01:46:22.867Z,23.67
2018-10-17T01:48:51.208Z,23.67
2018-10-17T01:51:19.527Z,23.67
2018-10-17T01:53:47.834Z,23.65
2018-10-17T01:56:16.165Z,23.65
2018-10-17T01:58:44.555Z,23.65
2018-10-17T02:01:12.971Z,23.65
2018-10-17T02:03:41.338Z,23.62
2018-10-17T02:06:09.669Z,23.63
2018-10-17T02:08:38.033Z,23.61
2018-10-17T02:11:06.457Z,23.60
2018-10-17T02:13:34.747Z,23.59
2018-10-17T02:16:03.090Z,23.58
2018-10-17T02:18:31.447Z,23.59
2018-10-17T02:20:59.793Z,23.57
2018-10-17T02:23:28.207Z,23.56
2018-10-17T02:25:57.520Z,23.56
2018-10-17T02:28:26.143Z,23.56
2018-10-17T02:30:54.503Z,23.56
2018-10-17T02:33:22.780Z,23.53
2018-10-17T02:35:51.151Z,23.52
2018-10-17T02:38:19.510Z,23.51
2018-10-17T02:40:47.821Z,23.51
2018-10-17T02:43:16.219Z,23.48
2018-10-17T02:45:44.467Z,23.48
2018-10-17T02:48:12.784Z,23.46
2018-10-17T02:50:41.245Z,23.46
2018-10-17T02:53:09.589Z,23.45
2018-10-17T02:55:37.949Z,23.44
2018-10-17T02:58:06.297Z,23.43
2018-10-17T03:00:34.607Z,23.43
2018-10-17T03:03:03.326Z,23.43
2018-10-17T03:05:31.621Z,23.42
2018-10-17T03:08:00.330Z,23.42
2018-10-17T03:10:28.664Z,23.42
2018-10-17T03:12:57.025Z,23.40
2018-10-17T03:15:25.289Z,23.39
2018-10-17T03:17:53.640Z,23.39
2018-10-17T03:20:21.974Z,23.39
2018-10-17T03:22:50.356Z,23.38
2018-10-17T03:25:18.761Z,23.38
2018-10-17T03:27:47.093Z,23.37
2018-10-17T03:30:15.432Z,23.36
2018-10-17T03:32:43.804Z,23.34
2018-10-17T03:35:12.152Z,23.35
2018-10-17T03:37:40.539Z,23.34
2018-10-17T03:40:08.898Z,23.32
2018-10-17T03:42:37.285Z,23.32
2018-10-17T03:45:06.300Z,23.31
2018-10-17T03:50:02.644Z,23.28
2018-10-17T03:52:30.902Z,23.29
2018-10-17T03:54:59.265Z,23.27
2018-10-17T03:57:27.619Z,23.28
2018-10-17T03:59:55.931Z,23.26
2018-10-17T04:02:24.275Z,23.25
2018-10-17T04:04:52.670Z,23.24
2018-10-17T04:07:21.019Z,23.24
2018-10-17T04:09:49.342Z,23.23
2018-10-17T04:12:17.739Z,23.23
2018-10-17T04:14:46.108Z,23.22
2018-10-17T04:17:14.643Z,23.21
2018-10-17T04:19:42.973Z,23.22
2018-10-17T04:22:11.280Z,23.20
2018-10-17T04:24:39.586Z,23.20
2018-10-17T04:27:07.923Z,23.20
2018-10-17T04:29:36.284Z,23.20
2018-10-17T04:32:05.348Z,23.19
2018-10-17T04:34:33.716Z,23.20
2018-10-17T04:37:02.185Z,23.19
2018-10-17T04:39:30.484Z,23.18
2018-10-17T04:41:58.829Z,23.18
2018-10-17T04:44:27.198Z,23.17
2018-10-17T04:46:55.581Z,23.17
2018-10-17T04:49:23.886Z,23.15
2018-10-17T04:51:52.225Z,23.16
2018-10-17T04:54:20.723Z,23.16
2018-10-17T04:56:49.082Z,23.15
2018-10-17T04:59:17.529Z,23.16
2018-10-17T05:01:45.766Z,23.16
2018-10-17T05:04:14.179Z,23.15
2018-10-17T05:06:42.543Z,23.15
2018-10-17T05:09:11.261Z,23.15
2018-10-17T05:11:40.268Z,23.13
2018-10-17T05:14:08.630Z,23.12
2018-10-17T05:16:37.409Z,23.13
2018-10-17T05:19:05.892Z,23.14
2018-10-17T05:21:34.218Z,23.13
2018-10-17T05:24:02.601Z,23.13
2018-10-17T05:26:31.079Z,23.12
2018-10-17T05:28:59.544Z,23.13
2018-10-17T05:31:27.963Z,23.12
2018-10-17T05:33:56.435Z,23.11
2018-10-17T05:36:24.796Z,23.11
2018-10-17T05:38:53.228Z,23.11
2018-10-17T05:41:21.584Z,23.09
2018-10-17T05:43:49.935Z,23.09
2018-10-17T05:46:18.251Z,23.09
2018-10-17T05:48:46.596Z,23.09
2018-10-17T05:51:15.010Z,23.08
2018-10-17T05:53:46.247Z,23.07
2018-10-17T05:56:14.562Z,23.07
2018-10-17T05:58:43.019Z,23.06
2018-10-17T06:01:11.380Z,23.05
2018-10-17T06:03:40.725Z,23.06
2018-10-17T06:06:09.086Z,23.04
2018-10-17T06:08:37.443Z,23.05
2018-10-17T06:11:05.867Z,23.05
2018-10-17T06:13:34.198Z,23.07
2018-10-17T06:16:02.579Z,23.07
2018-10-17T06:18:30.906Z,23.10
2018-10-17T06:20:59.256Z,23.12
2018-10-17T06:23:27.721Z,23.14
2018-10-17T06:25:56.075Z,23.17
2018-10-17T06:28:24.449Z,23.19
2018-10-17T06:30:52.705Z,23.22
2018-10-17T06:33:21.013Z,23.23
2018-10-17T06:35:49.395Z,23.25
2018-10-17T06:38:17.815Z,23.26
2018-10-17T06:40:46.230Z,23.28
2018-10-17T06:43:14.645Z,23.29
2018-10-17T06:45:43.059Z,23.32
2018-10-17T06:48:11.406Z,23.33
2018-10-17T06:50:39.740Z,23.34
2018-10-17T06:53:08.132Z,23.36
2018-10-17T06:55:36.514Z,23.38
2018-10-17T06:58:04.857Z,23.39
2018-10-17T07:00:33.243Z,23.41
2018-10-17T07:03:01.670Z,23.42
2018-10-17T07:05:30.062Z,23.45
2018-10-17T07:07:58.402Z,23.49
2018-10-17T07:10:26.760Z,23.52
2018-10-17T07:12:55.176Z,23.55
2018-10-17T07:15:23.537Z,23.55
2018-10-17T07:17:51.823Z,23.56
2018-10-17T07:20:20.182Z,23.57
2018-10-17T07:22:48.746Z,23.57
2018-10-17T07:25:17.225Z,23.58
2018-10-17T07:27:45.572Z,23.59
2018-10-17T07:30:13.991Z,23.63
2018-10-17T07:32:42.291Z,23.64
2018-10-17T07:35:11.272Z,23.68
2018-10-17T07:37:39.617Z,23.71
2018-10-17T07:40:07.988Z,23.74
2018-10-17T07:42:36.450Z,23.76
2018-10-17T07:45:05.234Z,23.78
2018-10-17T07:47:33.805Z,23.80
2018-10-17T07:50:02.241Z,23.83
2018-10-17T07:52:30.630Z,23.85
2018-10-17T07:54:58.942Z,23.90
2018-10-17T07:57:27.295Z,23.92
2018-10-17T07:59:55.681Z,23.96
2018-10-17T08:02:25.118Z,23.99
2018-10-17T08:04:53.483Z,24.02
2018-10-17T08:07:21.782Z,24.06
2018-10-17T08:09:50.151Z,24.08
2018-10-17T08:12:18.878Z,24.10
2018-10-17T08:14:47.153Z,24.13
2018-10-17T08:17:15.526Z,24.16
2018-10-17T08:19:43.926Z,24.20
2018-10-17T08:22:14.543Z,24.23
2018-10-17T08:24:42.907Z,24.27
2018-10-17T08:27:11.286Z,24.30
2018-10-17T08:29:39.655Z,24.32
2018-10-17T08:32:08.576Z,24.34
2018-10-17T08:34:36.942Z,24.35
2018-10-17T08:37:05.931Z,24.37
2018-10-17T08:39:33.854Z,24.39
2018-10-17T08:42:02.236Z,24.41
2018-10-17T08:44:30.623Z,24.44
2018-10-17T08:47:04.276Z,24.46
2018-10-17T08:49:35.826Z,24.48
2018-10-17T08:52:04.387Z,24.51
2018-10-17T08:54:32.731Z,24.54
2018-10-17T08:57:01.131Z,24.57
2018-10-17T08:59:29.435Z,24.61
2018-10-17T09:01:57.869Z,24.63
2018-10-17T09:04:26.200Z,24.67
2018-10-17T09:06:54.587Z,24.70
2018-10-17T09:09:22.954Z,24.74
2018-10-17T09:11:51.369Z,24.78
2018-10-17T09:14:19.703Z,24.81
2018-10-17T09:16:48.135Z,24.83
2018-10-17T09:19:16.501Z,24.87
2018-10-17T09:21:45.162Z,24.89
2018-10-17T09:24:13.354Z,24.92
2018-10-17T09:26:42.056Z,24.94
2018-10-17T09:29:13.106Z,24.98
2018-10-17T09:31:41.730Z,25.00
2018-10-17T09:34:10.152Z,25.02
2018-10-17T09:36:38.503Z,25.06
2018-10-17T09:39:09.258Z,25.09
2018-10-17T09:41:37.583Z,25.12
2018-10-17T09:44:05.934Z,25.15
2018-10-17T09:46:34.382Z,25.17
2018-10-17T09:49:02.747Z,25.19
2018-10-17T09:51:31.070Z,25.21
2018-10-17T09:53:59.495Z,25.25
2018-10-17T09:56:27.929Z,25.28
2018-10-17T09:58:56.323Z,25.32
2018-10-17T10:01:30.046Z,25.35
2018-10-17T10:03:58.557Z,25.39
2018-10-17T10:06:26.942Z,25.41
2018-10-17T10:08:55.347Z,25.44
2018-10-17T10:11:23.752Z,25.47
2018-10-17T10:13:52.373Z,25.48
2018-10-17T10:16:20.904Z,25.51
2018-10-17T10:18:49.375Z,25.54
2018-10-17T10:21:17.755Z,25.57
2018-10-17T10:23:47.535Z,25.61
2018-10-17T10:26:16.025Z,25.63
2018-10-17T10:28:44.676Z,25.66
2018-10-17T10:31:13.146Z,25.68
2018-10-17T10:33:41.673Z,25.70
2018-10-17T10:36:10.025Z,25.75
2018-10-17T10:38:38.386Z,25.80
2018-10-17T10:41:07.163Z,25.82
2018-10-17T10:43:35.547Z,25.87
2018-10-17T10:46:04.050Z,25.92
2018-10-17T10:48:32.383Z,25.95
2018-10-17T10:51:00.776Z,25.99
2018-10-17T10:53:29.801Z,26.02
2018-10-17T10:55:58.203Z,26.06
2018-10-17T10:58:26.608Z,26.10
2018-10-17T11:00:54.971Z,26.15
2018-10-17T11:03:23.310Z,26.18
2018-10-17T11:05:51.666Z,26.22
2018-10-17T11:08:20.035Z,26.25
2018-10-17T11:10:48.488Z,26.29
2018-10-17T11:13:17.009Z,26.31
2018-10-17T11:15:46.049Z,26.35
2018-10-17T11:18:14.509Z,26.38
2018-10-17T11:20:43.316Z,26.41
2018-10-17T11:23:12.763Z,26.45
2018-10-17T11:25:41.121Z,26.48
2018-10-17T11:28:10.167Z,26.51
2018-10-17T11:30:38.683Z,26.50
2018-10-17T11:33:07.339Z,26.53
2018-10-17T11:35:37.303Z,26.53
2018-10-17T11:38:05.810Z,26.53
2018-10-17T11:40:34.478Z,26.52
2018-10-17T11:43:03.000Z,26.52
2018-10-17T11:45:31.433Z,26.53
2018-10-17T11:47:59.764Z,26.49
2018-10-17T11:50:28.180Z,26.47
2018-10-17T11:52:57.748Z,26.47
2018-10-17T11:55:26.615Z,26.48
2018-10-17T11:57:56.091Z,26.48
2018-10-17T12:00:24.700Z,26.52
2018-10-17T12:02:53.277Z,26.53
2018-10-17T12:05:22.105Z,26.54
2018-10-17T12:07:50.145Z,26.55
2018-10-17T12:10:18.594Z,26.55
2018-10-17T12:12:46.974Z,26.55
2018-10-17T12:15:16.109Z,26.55
2018-10-17T12:17:44.608Z,26.51
2018-10-17T12:20:14.121Z,26.48
2018-10-17T12:22:43.433Z,26.46
2018-10-17T12:25:12.386Z,26.45
2018-10-17T12:27:40.945Z,26.42
2018-10-17T12:30:13.175Z,26.42
2018-10-17T12:32:41.889Z,26.39
2018-10-17T12:35:10.583Z,26.37
2018-10-17T12:37:39.930Z,26.39
2018-10-17T12:40:09.676Z,26.37
2018-10-17T12:42:38.204Z,26.35
2018-10-17T12:45:07.783Z,26.33
2018-10-17T12:47:37.062Z,26.32
2018-10-17T12:50:06.322Z,26.30
2018-10-17T12:52:34.774Z,26.31
2018-10-17T12:55:03.151Z,26.31
2018-10-17T12:57:31.487Z,26.30
2018-10-17T13:00:00.148Z,26.27
2018-10-17T13:02:28.688Z,26.27
2018-10-17T13:04:57.203Z,26.27
2018-10-17T13:07:25.774Z,26.27
2018-10-17T13:09:54.143Z,26.25
2018-10-17T13:12:22.687Z,26.23
2018-10-17T13:14:51.017Z,26.21
2018-10-17T13:17:19.548Z,26.22
2018-10-17T13:19:47.939Z,26.24
2018-10-17T13:22:16.299Z,26.24
2018-10-17T13:24:44.898Z,26.25
2018-10-17T13:27:13.340Z,26.26
2018-10-17T13:29:41.647Z,26.26
2018-10-17T13:32:10.224Z,26.25
2018-10-17T13:34:38.555Z,26.25
2018-10-17T13:37:07.452Z,26.25
2018-10-17T13:39:35.741Z,26.25
2018-10-17T13:42:04.393Z,26.25
2018-10-17T13:44:33.168Z,26.25
2018-10-17T13:47:02.266Z,26.26
2018-10-17T13:49:31.055Z,26.26
2018-10-17T13:51:59.663Z,26.24
2018-10-17T13:54:28.201Z,26.24
2018-10-17T13:56:56.569Z,26.24
2018-10-17T13:59:25.015Z,26.23
2018-10-17T14:01:53.482Z,26.23
2018-10-17T14:04:21.778Z,26.23
2018-10-17T14:06:50.191Z,26.22
2018-10-17T14:09:18.572Z,26.22
2018-10-17T14:11:46.886Z,26.21
2018-10-17T14:14:15.235Z,26.21
2018-10-17T14:16:43.590Z,26.21
2018-10-17T14:19:13.062Z,26.21
2018-10-17T14:21:41.347Z,26.20
2018-10-17T14:24:09.821Z,26.20
2018-10-17T14:26:38.095Z,26.19
2018-10-17T14:29:06.432Z,26.18
2018-10-17T14:31:34.722Z,26.17
2018-10-17T14:34:03.159Z,26.16
2018-10-17T14:36:31.443Z,26.16
2018-10-17T14:39:00.031Z,26.15
2018-10-17T14:41:28.307Z,26.14
2018-10-17T14:43:56.659Z,26.13
2018-10-17T14:46:25.031Z,26.13
2018-10-17T14:48:53.410Z,26.13
2018-10-17T14:51:21.784Z,26.12
2018-10-17T14:53:50.240Z,26.11
2018-10-17T14:56:18.824Z,26.11
2018-10-17T14:58:47.052Z,26.09
2018-10-17T15:01:15.368Z,26.10
2018-10-17T15:03:43.819Z,26.10
2018-10-17T15:06:12.139Z,26.08
2018-10-17T15:08:40.539Z,26.08
2018-10-17T15:11:08.995Z,26.06
2018-10-17T15:13:37.358Z,26.06
2018-10-17T15:16:05.924Z,26.05
2018-10-17T15:18:34.407Z,26.02
2018-10-17T15:21:02.992Z,26.03
2018-10-17T15:23:31.331Z,26.03
2018-10-17T15:25:59.722Z,26.02
2018-10-17T15:28:28.347Z,26.02
2018-10-17T15:30:56.788Z,26.01
2018-10-17T15:33:25.147Z,26.01
2018-10-17T15:35:53.558Z,26.00
2018-10-17T15:38:22.522Z,25.99
2018-10-17T15:40:50.931Z,25.99
2018-10-17T15:43:19.885Z,25.99
2018-10-17T15:45:49.347Z,25.98
2018-10-17T15:48:17.803Z,25.98
2018-10-17T15:50:46.275Z,25.97
2018-10-17T15:53:14.846Z,25.94
2018-10-17T15:55:43.313Z,25.94
2018-10-17T15:58:11.863Z,25.92
2018-10-17T16:00:41.264Z,25.90
2018-10-17T16:03:09.787Z,25.89
2018-10-17T16:05:38.327Z,25.86
2018-10-17T16:08:06.848Z,25.83
2018-10-17T16:10:36.154Z,25.81
2018-10-17T16:13:05.132Z,25.78
2018-10-17T16:15:37.769Z,25.76
2018-10-17T16:18:06.741Z,25.74
2018-10-17T16:20:35.176Z,25.71
2018-10-17T16:23:03.785Z,25.70
2018-10-17T16:25:32.075Z,25.67
2018-10-17T16:28:00.538Z,25.66
2018-10-17T16:30:29.094Z,25.62
2018-10-17T16:32:57.482Z,25.61
2018-10-17T16:35:25.926Z,25.59
2018-10-17T16:37:54.349Z,25.56
2018-10-17T16:40:22.907Z,25.54
2018-10-17T16:42:51.283Z,25.52
2018-10-17T16:45:19.652Z,25.49
2018-10-17T16:47:48.074Z,25.48
2018-10-17T16:50:16.629Z,25.48
2018-10-17T16:52:44.980Z,25.46
2018-10-17T16:55:13.314Z,25.44
2018-10-17T16:57:41.731Z,25.42
2018-10-17T17:00:11.325Z,25.43
2018-10-17T17:02:39.662Z,25.39
2018-10-17T17:05:10.943Z,25.37
2018-10-17T17:07:39.372Z,25.35
2018-10-17T17:10:08.104Z,25.33
2018-10-17T17:12:36.499Z,25.32
2018-10-17T17:15:04.929Z,25.31
2018-10-17T17:17:33.343Z,25.28
2018-10-17T17:20:01.775Z,25.27
2018-10-17T17:22:30.163Z,25.25
2018-10-17T17:24:58.496Z,25.25
2018-10-17T17:27:27.240Z,25.24
2018-10-17T17:29:55.856Z,25.23
2018-10-17T17:32:24.193Z,25.21
2018-10-17T17:34:52.581Z,25.20
2018-10-17T17:37:21.999Z,25.20
2018-10-17T17:39:50.359Z,25.19
2018-10-17T17:42:18.943Z,25.17
2018-10-17T17:44:47.426Z,25.16
2018-10-17T17:47:15.830Z,25.16
2018-10-17T17:49:44.259Z,25.14
2018-10-17T17:52:12.650Z,25.13
2018-10-17T17:54:41.075Z,25.12
2018-10-17T17:57:09.403Z,25.10
2018-10-17T17:59:37.994Z,25.09
2018-10-17T18:02:06.676Z,25.08
2018-10-17T18:04:35.613Z,25.06
2018-10-17T18:07:04.231Z,25.05
2018-10-17T18:09:33.942Z,25.05
2018-10-17T18:12:02.693Z,25.05
2018-10-17T18:14:31.220Z,25.03
2018-10-17T18:17:00.556Z,25.03
2018-10-17T18:19:29.232Z,25.02
2018-10-17T18:21:57.944Z,25.01
2018-10-17T18:24:26.260Z,24.99
2018-10-17T18:26:54.714Z,24.99
2018-10-17T18:29:24.096Z,24.98
2018-10-17T18:31:52.524Z,24.96
2018-10-17T18:34:21.012Z,24.95
2018-10-17T18:36:49.474Z,24.94
2018-10-17T18:39:17.944Z,24.92
2018-10-17T18:41:46.348Z,24.89
2018-10-17T18:44:14.787Z,24.89
2018-10-17T18:46:43.182Z,24.89
2018-10-17T18:49:11.667Z,24.88
2018-10-17T18:51:40.264Z,24.87
2018-10-17T18:54:08.955Z,24.86
2018-10-17T18:56:37.565Z,24.85
2018-10-17T18:59:06.348Z,24.84
2018-10-17T19:01:34.894Z,24.82
2018-10-17T19:04:03.274Z,24.83
2018-10-17T19:06:31.611Z,24.80
2018-10-17T19:09:00.030Z,24.80
2018-10-17T19:11:28.423Z,24.80
2018-10-17T19:13:56.755Z,24.78
2018-10-17T19:16:25.127Z,24.77
2018-10-17T19:18:53.555Z,24.77
2018-10-17T19:21:22.011Z,24.75
2018-10-17T19:23:50.355Z,24.74
2018-10-17T19:26:19.110Z,24.73
2018-10-17T19:28:47.484Z,24.72
2018-10-17T19:31:15.927Z,24.71
2018-10-17T19:33:45.310Z,24.70
2018-10-17T19:36:13.751Z,24.69
2018-10-17T19:38:42.143Z,24.69
2018-10-17T19:41:10.623Z,24.66
2018-10-17T19:43:39.041Z,24.66
2018-10-17T19:46:07.566Z,24.65
2018-10-17T19:48:35.926Z,24.63
2018-10-17T19:51:05.495Z,24.62
2018-10-17T19:53:34.186Z,24.61
2018-10-17T19:56:02.716Z,24.60
2018-10-17T19:58:30.939Z,24.58
2018-10-17T20:00:59.310Z,24.56
2018-10-17T20:03:27.688Z,24.56
2018-10-17T20:05:56.146Z,24.54
2018-10-17T20:08:24.639Z,24.55
2018-10-17T20:10:53.048Z,24.54
2018-10-17T20:13:21.439Z,24.52
2018-10-17T20:15:50.099Z,24.52
2018-10-17T20:18:19.617Z,24.50
2018-10-17T20:20:47.995Z,24.49
2018-10-17T20:23:16.540Z,24.49
2018-10-17T20:25:45.064Z,24.47
2018-10-17T20:28:13.595Z,24.47
2018-10-17T20:30:42.037Z,24.46
2018-10-17T20:33:10.414Z,24.44
2018-10-17T20:35:38.749Z,24.43
2018-10-17T20:38:07.422Z,24.42
2018-10-17T20:40:35.783Z,24.40
2018-10-17T20:43:04.146Z,24.40
2018-10-17T20:45:32.598Z,24.39
2018-10-17T20:48:01.406Z,24.38
2018-10-17T20:50:29.846Z,24.37
2018-10-17T20:52:58.179Z,24.36
2018-10-17T20:55:26.563Z,24.35
2018-10-17T20:57:54.977Z,24.35
2018-10-17T21:00:23.273Z,24.33
2018-10-17T21:02:53.866Z,24.32
2018-10-17T21:05:22.237Z,24.31
2018-10-17T21:07:50.629Z,24.31
2018-10-17T21:10:18.966Z,24.29
2018-10-17T21:12:47.358Z,24.28
2018-10-17T21:15:15.678Z,24.28
2018-10-17T21:17:44.007Z,24.26
2018-10-17T21:20:12.502Z,24.24
2018-10-17T21:22:41.068Z,24.23
2018-10-17T21:25:09.525Z,24.24
2018-10-17T21:27:37.918Z,24.22
2018-10-17T21:30:07.530Z,24.22
2018-10-17T21:32:35.906Z,24.20
2018-10-17T21:35:04.531Z,24.19
2018-10-17T21:37:32.920Z,24.19
2018-10-17T21:40:01.327Z,24.17
2018-10-17T21:42:29.750Z,24.17
2018-10-17T21:44:58.331Z,24.17
2018-10-17T21:47:26.911Z,24.16
2018-10-17T21:49:55.255Z,24.14
2018-10-17T21:52:23.559Z,24.14
2018-10-17T21:54:52.072Z,24.13
2018-10-17T21:57:20.456Z,24.12
2018-10-17T21:59:48.886Z,24.11
2018-10-17T22:02:17.425Z,24.10
2018-10-17T22:04:46.777Z,24.09
2018-10-17T22:07:15.196Z,24.09
2018-10-17T22:09:43.556Z,24.05
2018-10-17T22:12:11.960Z,24.07
2018-10-17T22:14:40.262Z,24.06
2018-10-17T22:17:08.724Z,24.06
2018-10-17T22:19:38.040Z,24.03
2018-10-17T22:22:07.053Z,24.02
2018-10-17T22:24:35.465Z,24.02
2018-10-17T22:27:03.868Z,24.02
2018-10-17T22:29:32.209Z,24.01
2018-10-17T22:32:00.672Z,24.01
2018-10-17T22:34:29.186Z,23.99
2018-10-17T22:36:57.512Z,23.99
2018-10-17T22:39:25.847Z,23.98
2018-10-17T22:41:54.170Z,23.97
2018-10-17T22:44:22.490Z,23.96
2018-10-17T22:46:50.994Z,23.93
2018-10-17T22:49:19.302Z,23.93
2018-10-17T22:51:47.649Z,23.93
2018-10-17T22:54:16.015Z,23.92
2018-10-17T22:56:44.332Z,23.90
2018-10-17T22:59:12.693Z,23.90
2018-10-17T23:01:41.081Z,23.89
2018-10-17T23:04:09.747Z,23.89
2018-10-17T23:06:38.502Z,23.87
2018-10-17T23:09:12.276Z,23.88
2018-10-17T23:11:41.307Z,23.87
2018-10-17T23:14:10.158Z,23.85
2018-10-17T23:16:38.517Z,23.85
2018-10-17T23:19:07.704Z,23.84
2018-10-17T23:21:36.087Z,23.84
2018-10-17T23:24:04.510Z,23.82
2018-10-17T23:26:32.834Z,23.82
2018-10-17T23:29:01.267Z,23.80
2018-10-17T23:31:29.598Z,23.80
2018-10-17T23:33:57.978Z,23.78
2018-10-17T23:36:26.320Z,23.78
2018-10-17T23:38:55.026Z,23.77
2018-10-17T23:41:23.379Z,23.76
2018-10-17T23:43:51.819Z,23.75
2018-10-17T23:46:20.203Z,23.74
2018-10-17T23:48:48.571Z,23.73
2018-10-17T23:51:16.875Z,23.72
2018-10-17T23:53:45.338Z,23.72
2018-10-17T23:56:13.797Z,23.71
2018-10-17T23:58:42.129Z,23.70
